sensor_id;sensor_type;location;lat;lon;timestamp;P1;durP1;ratioP1;P2;durP2;ratioP2
83632;SDS011;73595;53.084;6.696;2024-01-15T00:00:43;22.48;;;2.97;;
83632;SDS011;73595;53.084;6.696;2024-01-15T00:03:09;17.67;;;2.08;;
83632;SDS011;73595;53.084;6.696;2024-01-15T00:05:35;25.65;;;2.17;;
83632;SDS011;73595;53.084;6.696;2024-01-15T00:08:01;18.42;;;2.30;;
83632;SDS011;73595;53.084;6.696;2024-01-15T00:10:26;14.73;;;1.77;;
83632;SDS011;73595;53.084;6.696;2024-01-15T00:12:52;15.93;;;2.10;;
83632;SDS011;73595;53.084;6.696;2024-01-15T00:15:17;18.67;;;2.03;;
83632;SDS011;73595;53.084;6.696;2024-01-15T00:17:42;17.02;;;1.92;;
83632;SDS011;73595;53.084;6.696;2024-01-15T00:20:08;16.30;;;2.38;;
83632;SDS011;73595;53.084;6.696;2024-01-15T00:22:34;12.77;;;1.70;;
83632;SDS011;73595;53.084;6.696;2024-01-15T00:25:01;11.75;;;1.50;;
83632;SDS011;73595;53.084;6.696;2024-01-15T00:27:27;23.73;;;2.88;;
83632;SDS011;73595;53.084;6.696;2024-01-15T00:29:52;13.30;;;1.70;;
83632;SDS011;73595;53.084;6.696;2024-01-15T00:32:19;7.72;;;1.77;;
83632;SDS011;73595;53.084;6.696;2024-01-15T00:34:46;14.85;;;1.75;;
83632;SDS011;73595;53.084;6.696;2024-01-15T00:37:12;8.73;;;1.30;;
83632;SDS011;73595;53.084;6.696;2024-01-15T00:39:37;18.58;;;2.50;;
83632;SDS011;73595;53.084;6.696;2024-01-15T00:42:03;9.25;;;1.27;;
83632;SDS011;73595;53.084;6.696;2024-01-15T00:44:28;12.85;;;2.28;;
83632;SDS011;73595;53.084;6.696;2024-01-15T00:46:54;10.23;;;1.00;;
83632;SDS011;73595;53.084;6.696;2024-01-15T00:49:19;10.60;;;1.10;;
83632;SDS011;73595;53.084;6.696;2024-01-15T00:51:45;8.05;;;1.70;;
83632;SDS011;73595;53.084;6.696;2024-01-15T00:54:10;6.43;;;0.80;;
83632;SDS011;73595;53.084;6.696;2024-01-15T00:56:36;9.88;;;1.02;;
83632;SDS011;73595;53.084;6.696;2024-01-15T00:59:01;10.60;;;1.40;;
83632;SDS011;73595;53.084;6.696;2024-01-15T01:01:27;9.25;;;1.38;;
83632;SDS011;73595;53.084;6.696;2024-01-15T01:03:52;6.13;;;0.93;;
83632;SDS011;73595;53.084;6.696;2024-01-15T01:06:18;10.88;;;1.20;;
83632;SDS011;73595;53.084;6.696;2024-01-15T01:08:43;5.68;;;1.10;;
83632;SDS011;73595;53.084;6.696;2024-01-15T01:11:12;7.60;;;1.20;;
83632;SDS011;73595;53.084;6.696;2024-01-15T01:13:38;5.18;;;0.80;;
83632;SDS011;73595;53.084;6.696;2024-01-15T01:16:03;7.65;;;1.23;;
83632;SDS011;73595;53.084;6.696;2024-01-15T01:18:29;11.48;;;1.60;;
83632;SDS011;73595;53.084;6.696;2024-01-15T01:20:54;11.73;;;1.05;;
83632;SDS011;73595;53.084;6.696;2024-01-15T01:23:20;7.30;;;1.17;;
83632;SDS011;73595;53.084;6.696;2024-01-15T01:25:45;8.15;;;1.60;;
83632;SDS011;73595;53.084;6.696;2024-01-15T01:28:10;13.07;;;1.40;;
83632;SDS011;73595;53.084;6.696;2024-01-15T01:30:36;11.80;;;1.55;;
83632;SDS011;73595;53.084;6.696;2024-01-15T01:33:01;12.18;;;1.45;;
83632;SDS011;73595;53.084;6.696;2024-01-15T01:35:27;13.10;;;1.95;;
83632;SDS011;73595;53.084;6.696;2024-01-15T01:37:52;18.42;;;2.30;;
83632;SDS011;73595;53.084;6.696;2024-01-15T01:40:17;17.55;;;1.65;;
83632;SDS011;73595;53.084;6.696;2024-01-15T01:42:43;7.75;;;1.40;;
83632;SDS011;73595;53.084;6.696;2024-01-15T01:45:08;10.07;;;1.63;;
83632;SDS011;73595;53.084;6.696;2024-01-15T01:47:34;12.07;;;1.75;;
83632;SDS011;73595;53.084;6.696;2024-01-15T01:50:00;10.68;;;1.75;;
83632;SDS011;73595;53.084;6.696;2024-01-15T01:52:27;11.27;;;1.45;;
83632;SDS011;73595;53.084;6.696;2024-01-15T01:54:53;10.88;;;1.70;;
83632;SDS011;73595;53.084;6.696;2024-01-15T01:57:19;12.85;;;1.38;;
83632;SDS011;73595;53.084;6.696;2024-01-15T01:59:44;13.18;;;1.60;;
83632;SDS011;73595;53.084;6.696;2024-01-15T02:02:11;11.52;;;1.40;;
83632;SDS011;73595;53.084;6.696;2024-01-15T02:04:37;14.60;;;1.40;;
83632;SDS011;73595;53.084;6.696;2024-01-15T02:07:03;8.68;;;1.20;;
83632;SDS011;73595;53.084;6.696;2024-01-15T02:09:29;11.90;;;1.45;;
83632;SDS011;73595;53.084;6.696;2024-01-15T02:11:54;12.15;;;1.15;;
83632;SDS011;73595;53.084;6.696;2024-01-15T02:14:20;13.60;;;1.35;;
83632;SDS011;73595;53.084;6.696;2024-01-15T02:16:46;18.73;;;1.65;;
83632;SDS011;73595;53.084;6.696;2024-01-15T02:19:18;8.80;;;1.25;;
83632;SDS011;73595;53.084;6.696;2024-01-15T02:21:43;6.90;;;1.30;;
83632;SDS011;73595;53.084;6.696;2024-01-15T02:24:09;8.50;;;1.48;;
83632;SDS011;73595;53.084;6.696;2024-01-15T02:26:35;11.95;;;1.55;;
83632;SDS011;73595;53.084;6.696;2024-01-15T02:29:03;9.75;;;0.90;;
83632;SDS011;73595;53.084;6.696;2024-01-15T02:31:30;6.05;;;1.00;;
83632;SDS011;73595;53.084;6.696;2024-01-15T02:33:55;10.38;;;1.70;;
83632;SDS011;73595;53.084;6.696;2024-01-15T02:36:20;7.47;;;1.15;;
83632;SDS011;73595;53.084;6.696;2024-01-15T02:38:46;13.93;;;2.50;;
83632;SDS011;73595;53.084;6.696;2024-01-15T02:41:11;6.53;;;1.10;;
83632;SDS011;73595;53.084;6.696;2024-01-15T02:43:39;11.65;;;1.02;;
83632;SDS011;73595;53.084;6.696;2024-01-15T02:46:04;9.10;;;1.20;;
83632;SDS011;73595;53.084;6.696;2024-01-15T02:48:30;12.98;;;1.40;;
83632;SDS011;73595;53.084;6.696;2024-01-15T02:50:55;12.88;;;1.65;;
83632;SDS011;73595;53.084;6.696;2024-01-15T02:53:21;10.25;;;1.42;;
83632;SDS011;73595;53.084;6.696;2024-01-15T02:55:46;18.67;;;1.55;;
83632;SDS011;73595;53.084;6.696;2024-01-15T02:58:11;18.38;;;1.77;;
83632;SDS011;73595;53.084;6.696;2024-01-15T03:00:37;13.52;;;3.28;;
83632;SDS011;73595;53.084;6.696;2024-01-15T03:03:02;18.55;;;1.90;;
83632;SDS011;73595;53.084;6.696;2024-01-15T03:05:27;13.77;;;2.00;;
83632;SDS011;73595;53.084;6.696;2024-01-15T03:07:53;16.40;;;1.85;;
83632;SDS011;73595;53.084;6.696;2024-01-15T03:10:18;15.52;;;2.75;;
83632;SDS011;73595;53.084;6.696;2024-01-15T03:12:44;17.92;;;1.60;;
83632;SDS011;73595;53.084;6.696;2024-01-15T03:15:09;16.40;;;2.47;;
83632;SDS011;73595;53.084;6.696;2024-01-15T03:17:35;13.73;;;1.63;;
83632;SDS011;73595;53.084;6.696;2024-01-15T03:20:00;13.02;;;1.60;;
83632;SDS011;73595;53.084;6.696;2024-01-15T03:22:27;15.52;;;2.45;;
83632;SDS011;73595;53.084;6.696;2024-01-15T03:24:53;21.33;;;2.10;;
83632;SDS011;73595;53.084;6.696;2024-01-15T03:27:18;14.00;;;1.70;;
83632;SDS011;73595;53.084;6.696;2024-01-15T03:29:44;18.05;;;2.05;;
83632;SDS011;73595;53.084;6.696;2024-01-15T03:32:09;20.25;;;2.00;;
83632;SDS011;73595;53.084;6.696;2024-01-15T03:34:34;14.90;;;1.77;;
83632;SDS011;73595;53.084;6.696;2024-01-15T03:37:00;17.92;;;2.05;;
83632;SDS011;73595;53.084;6.696;2024-01-15T03:39:25;20.55;;;2.78;;
83632;SDS011;73595;53.084;6.696;2024-01-15T03:41:51;12.70;;;2.22;;
83632;SDS011;73595;53.084;6.696;2024-01-15T03:44:16;21.58;;;1.88;;
83632;SDS011;73595;53.084;6.696;2024-01-15T03:46:41;13.40;;;1.55;;
83632;SDS011;73595;53.084;6.696;2024-01-15T03:49:07;23.48;;;2.17;;
83632;SDS011;73595;53.084;6.696;2024-01-15T03:51:32;19.90;;;2.10;;
83632;SDS011;73595;53.084;6.696;2024-01-15T03:53:58;19.52;;;2.47;;
83632;SDS011;73595;53.084;6.696;2024-01-15T03:56:23;10.63;;;1.70;;
83632;SDS011;73595;53.084;6.696;2024-01-15T03:58:51;16.65;;;1.70;;
83632;SDS011;73595;53.084;6.696;2024-01-15T04:01:17;14.82;;;2.30;;
83632;SDS011;73595;53.084;6.696;2024-01-15T04:03:42;14.65;;;1.80;;
83632;SDS011;73595;53.084;6.696;2024-01-15T04:06:08;13.75;;;2.03;;
83632;SDS011;73595;53.084;6.696;2024-01-15T04:08:33;17.27;;;2.08;;
83632;SDS011;73595;53.084;6.696;2024-01-15T04:10:58;19.08;;;3.00;;
83632;SDS011;73595;53.084;6.696;2024-01-15T04:13:24;16.77;;;2.03;;
83632;SDS011;73595;53.084;6.696;2024-01-15T04:15:50;15.50;;;1.73;;
83632;SDS011;73595;53.084;6.696;2024-01-15T04:18:15;12.13;;;1.88;;
83632;SDS011;73595;53.084;6.696;2024-01-15T04:20:41;8.85;;;1.42;;
83632;SDS011;73595;53.084;6.696;2024-01-15T04:23:07;12.77;;;1.95;;
83632;SDS011;73595;53.084;6.696;2024-01-15T04:25:32;15.68;;;1.70;;
83632;SDS011;73595;53.084;6.696;2024-01-15T04:27:58;12.00;;;1.38;;
83632;SDS011;73595;53.084;6.696;2024-01-15T04:30:23;14.15;;;1.65;;
83632;SDS011;73595;53.084;6.696;2024-01-15T04:32:52;13.20;;;1.58;;
83632;SDS011;73595;53.084;6.696;2024-01-15T04:35:17;11.75;;;1.55;;
83632;SDS011;73595;53.084;6.696;2024-01-15T04:37:42;12.77;;;1.13;;
83632;SDS011;73595;53.084;6.696;2024-01-15T04:40:08;10.50;;;1.30;;
83632;SDS011;73595;53.084;6.696;2024-01-15T04:42:34;9.93;;;1.42;;
83632;SDS011;73595;53.084;6.696;2024-01-15T04:44:59;11.07;;;1.50;;
83632;SDS011;73595;53.084;6.696;2024-01-15T04:47:25;8.13;;;1.02;;
83632;SDS011;73595;53.084;6.696;2024-01-15T04:49:50;6.68;;;1.10;;
83632;SDS011;73595;53.084;6.696;2024-01-15T04:52:16;7.13;;;1.10;;
83632;SDS011;73595;53.084;6.696;2024-01-15T04:54:43;6.68;;;0.80;;
83632;SDS011;73595;53.084;6.696;2024-01-15T04:57:08;9.55;;;1.30;;
83632;SDS011;73595;53.084;6.696;2024-01-15T04:59:33;4.53;;;0.68;;
83632;SDS011;73595;53.084;6.696;2024-01-15T05:01:59;6.22;;;1.08;;
83632;SDS011;73595;53.084;6.696;2024-01-15T05:04:24;4.70;;;0.75;;
83632;SDS011;73595;53.084;6.696;2024-01-15T05:06:50;3.70;;;0.90;;
83632;SDS011;73595;53.084;6.696;2024-01-15T05:09:16;6.35;;;1.00;;
83632;SDS011;73595;53.084;6.696;2024-01-15T05:11:42;8.50;;;0.93;;
83632;SDS011;73595;53.084;6.696;2024-01-15T05:14:08;7.93;;;1.08;;
83632;SDS011;73595;53.084;6.696;2024-01-15T05:16:33;2.72;;;0.80;;
83632;SDS011;73595;53.084;6.696;2024-01-15T05:18:59;4.57;;;0.60;;
83632;SDS011;73595;53.084;6.696;2024-01-15T05:21:24;9.68;;;1.05;;
83632;SDS011;73595;53.084;6.696;2024-01-15T05:23:49;4.85;;;0.65;;
83632;SDS011;73595;53.084;6.696;2024-01-15T05:26:15;7.90;;;0.88;;
83632;SDS011;73595;53.084;6.696;2024-01-15T05:28:41;7.53;;;1.08;;
83632;SDS011;73595;53.084;6.696;2024-01-15T05:31:08;6.78;;;1.05;;
83632;SDS011;73595;53.084;6.696;2024-01-15T05:33:34;3.33;;;0.70;;
83632;SDS011;73595;53.084;6.696;2024-01-15T05:35:59;4.50;;;0.90;;
83632;SDS011;73595;53.084;6.696;2024-01-15T05:38:24;5.47;;;1.38;;
83632;SDS011;73595;53.084;6.696;2024-01-15T05:40:50;7.30;;;0.98;;
83632;SDS011;73595;53.084;6.696;2024-01-15T05:43:15;12.07;;;1.27;;
83632;SDS011;73595;53.084;6.696;2024-01-15T05:45:42;9.88;;;1.92;;
83632;SDS011;73595;53.084;6.696;2024-01-15T05:48:08;5.72;;;1.00;;
83632;SDS011;73595;53.084;6.696;2024-01-15T05:50:33;11.05;;;1.10;;
83632;SDS011;73595;53.084;6.696;2024-01-15T05:52:59;12.63;;;1.20;;
83632;SDS011;73595;53.084;6.696;2024-01-15T05:55:28;15.35;;;1.45;;
83632;SDS011;73595;53.084;6.696;2024-01-15T05:57:53;14.25;;;1.85;;
83632;SDS011;73595;53.084;6.696;2024-01-15T06:00:18;9.55;;;1.35;;
83632;SDS011;73595;53.084;6.696;2024-01-15T06:02:44;12.98;;;2.53;;
83632;SDS011;73595;53.084;6.696;2024-01-15T06:05:09;12.57;;;1.95;;
83632;SDS011;73595;53.084;6.696;2024-01-15T06:07:34;10.25;;;1.75;;
83632;SDS011;73595;53.084;6.696;2024-01-15T06:10:00;11.32;;;1.45;;
83632;SDS011;73595;53.084;6.696;2024-01-15T06:12:26;11.90;;;1.60;;
83632;SDS011;73595;53.084;6.696;2024-01-15T06:14:52;14.73;;;1.80;;
83632;SDS011;73595;53.084;6.696;2024-01-15T06:17:18;10.10;;;1.20;;
83632;SDS011;73595;53.084;6.696;2024-01-15T06:19:43;15.40;;;1.80;;
83632;SDS011;73595;53.084;6.696;2024-01-15T06:22:09;10.18;;;1.30;;
83632;SDS011;73595;53.084;6.696;2024-01-15T06:24:34;9.75;;;1.30;;
83632;SDS011;73595;53.084;6.696;2024-01-15T06:26:59;11.40;;;1.15;;
83632;SDS011;73595;53.084;6.696;2024-01-15T06:29:25;11.73;;;1.60;;
83632;SDS011;73595;53.084;6.696;2024-01-15T06:31:51;11.18;;;1.65;;
83632;SDS011;73595;53.084;6.696;2024-01-15T06:34:16;9.60;;;1.33;;
83632;SDS011;73595;53.084;6.696;2024-01-15T06:36:42;6.10;;;1.20;;
83632;SDS011;73595;53.084;6.696;2024-01-15T06:39:07;12.13;;;1.42;;
83632;SDS011;73595;53.084;6.696;2024-01-15T06:41:33;14.85;;;2.20;;
83632;SDS011;73595;53.084;6.696;2024-01-15T06:43:58;18.30;;;2.53;;
83632;SDS011;73595;53.084;6.696;2024-01-15T06:46:23;10.95;;;1.63;;
83632;SDS011;73595;53.084;6.696;2024-01-15T06:48:50;11.57;;;1.65;;
83632;SDS011;73595;53.084;6.696;2024-01-15T06:51:15;14.30;;;1.80;;
83632;SDS011;73595;53.084;6.696;2024-01-15T06:53:41;19.17;;;2.15;;
83632;SDS011;73595;53.084;6.696;2024-01-15T06:56:06;17.70;;;1.88;;
83632;SDS011;73595;53.084;6.696;2024-01-15T06:58:31;12.57;;;2.38;;
83632;SDS011;73595;53.084;6.696;2024-01-15T07:00:57;12.80;;;1.85;;
83632;SDS011;73595;53.084;6.696;2024-01-15T07:03:22;19.33;;;1.88;;
83632;SDS011;73595;53.084;6.696;2024-01-15T07:05:48;15.45;;;1.92;;
83632;SDS011;73595;53.084;6.696;2024-01-15T07:08:13;20.67;;;2.20;;
83632;SDS011;73595;53.084;6.696;2024-01-15T07:10:39;15.40;;;2.22;;
83632;SDS011;73595;53.084;6.696;2024-01-15T07:13:04;22.50;;;3.60;;
83632;SDS011;73595;53.084;6.696;2024-01-15T07:15:30;13.05;;;1.75;;
83632;SDS011;73595;53.084;6.696;2024-01-15T07:17:56;12.80;;;2.03;;
83632;SDS011;73595;53.084;6.696;2024-01-15T07:20:21;20.17;;;2.50;;
83632;SDS011;73595;53.084;6.696;2024-01-15T07:22:49;18.63;;;1.73;;
83632;SDS011;73595;53.084;6.696;2024-01-15T07:25:15;8.52;;;1.50;;
83632;SDS011;73595;53.084;6.696;2024-01-15T07:27:41;10.38;;;1.88;;
83632;SDS011;73595;53.084;6.696;2024-01-15T07:30:09;15.32;;;1.65;;
83632;SDS011;73595;53.084;6.696;2024-01-15T07:32:38;11.60;;;1.52;;
83632;SDS011;73595;53.084;6.696;2024-01-15T07:35:04;13.40;;;1.67;;
83632;SDS011;73595;53.084;6.696;2024-01-15T07:37:30;14.13;;;2.22;;
83632;SDS011;73595;53.084;6.696;2024-01-15T07:39:56;14.25;;;1.90;;
83632;SDS011;73595;53.084;6.696;2024-01-15T07:42:21;14.55;;;2.40;;
83632;SDS011;73595;53.084;6.696;2024-01-15T07:44:47;13.20;;;1.95;;
83632;SDS011;73595;53.084;6.696;2024-01-15T07:47:12;13.85;;;1.80;;
83632;SDS011;73595;53.084;6.696;2024-01-15T07:49:37;17.27;;;2.05;;
83632;SDS011;73595;53.084;6.696;2024-01-15T07:52:04;16.45;;;2.17;;
83632;SDS011;73595;53.084;6.696;2024-01-15T07:54:30;13.93;;;2.22;;
83632;SDS011;73595;53.084;6.696;2024-01-15T07:56:56;16.88;;;1.85;;
83632;SDS011;73595;53.084;6.696;2024-01-15T07:59:23;11.35;;;1.77;;
83632;SDS011;73595;53.084;6.696;2024-01-15T08:01:48;25.55;;;2.08;;
83632;SDS011;73595;53.084;6.696;2024-01-15T08:04:14;19.30;;;2.65;;
83632;SDS011;73595;53.084;6.696;2024-01-15T08:06:39;12.20;;;1.60;;
83632;SDS011;73595;53.084;6.696;2024-01-15T08:09:05;12.93;;;1.63;;
83632;SDS011;73595;53.084;6.696;2024-01-15T08:11:30;16.08;;;1.65;;
83632;SDS011;73595;53.084;6.696;2024-01-15T08:13:56;9.65;;;1.48;;
83632;SDS011;73595;53.084;6.696;2024-01-15T08:16:21;11.15;;;1.20;;
83632;SDS011;73595;53.084;6.696;2024-01-15T08:18:49;9.05;;;1.48;;
83632;SDS011;73595;53.084;6.696;2024-01-15T08:21:14;10.18;;;1.10;;
83632;SDS011;73595;53.084;6.696;2024-01-15T08:23:40;10.07;;;1.85;;
83632;SDS011;73595;53.084;6.696;2024-01-15T08:26:05;8.25;;;1.33;;
83632;SDS011;73595;53.084;6.696;2024-01-15T08:28:31;9.65;;;1.67;;
83632;SDS011;73595;53.084;6.696;2024-01-15T08:30:56;9.00;;;1.20;;
83632;SDS011;73595;53.084;6.696;2024-01-15T08:33:22;10.75;;;1.13;;
83632;SDS011;73595;53.084;6.696;2024-01-15T08:35:47;9.70;;;1.50;;
83632;SDS011;73595;53.084;6.696;2024-01-15T08:38:13;9.50;;;1.63;;
83632;SDS011;73595;53.084;6.696;2024-01-15T08:40:38;10.73;;;1.58;;
83632;SDS011;73595;53.084;6.696;2024-01-15T08:43:03;6.90;;;1.77;;
83632;SDS011;73595;53.084;6.696;2024-01-15T08:45:29;6.40;;;1.17;;
83632;SDS011;73595;53.084;6.696;2024-01-15T08:47:55;7.53;;;1.15;;
83632;SDS011;73595;53.084;6.696;2024-01-15T08:50:20;8.85;;;1.13;;
83632;SDS011;73595;53.084;6.696;2024-01-15T08:52:45;7.15;;;1.42;;
83632;SDS011;73595;53.084;6.696;2024-01-15T08:55:11;6.28;;;0.90;;
83632;SDS011;73595;53.084;6.696;2024-01-15T08:57:38;15.32;;;1.50;;
83632;SDS011;73595;53.084;6.696;2024-01-15T09:00:05;7.00;;;1.20;;
83632;SDS011;73595;53.084;6.696;2024-01-15T09:02:33;8.27;;;1.05;;
83632;SDS011;73595;53.084;6.696;2024-01-15T09:04:59;5.30;;;1.33;;
83632;SDS011;73595;53.084;6.696;2024-01-15T09:07:25;9.20;;;1.50;;
83632;SDS011;73595;53.084;6.696;2024-01-15T09:09:51;9.23;;;1.27;;
83632;SDS011;73595;53.084;6.696;2024-01-15T09:12:17;11.88;;;1.20;;
83632;SDS011;73595;53.084;6.696;2024-01-15T09:14:43;7.50;;;1.30;;
83632;SDS011;73595;53.084;6.696;2024-01-15T09:17:09;8.32;;;1.23;;
83632;SDS011;73595;53.084;6.696;2024-01-15T09:19:34;8.98;;;1.05;;
83632;SDS011;73595;53.084;6.696;2024-01-15T09:22:00;5.13;;;0.93;;
83632;SDS011;73595;53.084;6.696;2024-01-15T09:24:25;6.22;;;1.02;;
83632;SDS011;73595;53.084;6.696;2024-01-15T09:26:50;7.47;;;1.10;;
83632;SDS011;73595;53.084;6.696;2024-01-15T09:29:16;7.75;;;1.15;;
83632;SDS011;73595;53.084;6.696;2024-01-15T09:31:42;7.15;;;1.15;;
83632;SDS011;73595;53.084;6.696;2024-01-15T09:34:07;3.80;;;0.90;;
83632;SDS011;73595;53.084;6.696;2024-01-15T09:36:32;12.32;;;0.95;;
83632;SDS011;73595;53.084;6.696;2024-01-15T09:38:57;9.68;;;1.23;;
83632;SDS011;73595;53.084;6.696;2024-01-15T09:41:23;9.55;;;1.33;;
83632;SDS011;73595;53.084;6.696;2024-01-15T09:43:48;9.80;;;1.52;;
83632;SDS011;73595;53.084;6.696;2024-01-15T09:46:14;11.15;;;1.20;;
83632;SDS011;73595;53.084;6.696;2024-01-15T09:48:40;7.43;;;1.10;;
83632;SDS011;73595;53.084;6.696;2024-01-15T09:51:06;7.63;;;1.00;;
83632;SDS011;73595;53.084;6.696;2024-01-15T09:53:33;12.05;;;1.70;;
83632;SDS011;73595;53.084;6.696;2024-01-15T09:55:59;11.88;;;1.30;;
83632;SDS011;73595;53.084;6.696;2024-01-15T09:58:24;6.60;;;1.10;;
83632;SDS011;73595;53.084;6.696;2024-01-15T10:00:50;5.85;;;0.75;;
83632;SDS011;73595;53.084;6.696;2024-01-15T10:03:16;12.55;;;1.33;;
83632;SDS011;73595;53.084;6.696;2024-01-15T10:05:43;10.00;;;1.75;;
83632;SDS011;73595;53.084;6.696;2024-01-15T10:08:08;15.30;;;2.53;;
83632;SDS011;73595;53.084;6.696;2024-01-15T10:10:36;7.45;;;1.20;;
83632;SDS011;73595;53.084;6.696;2024-01-15T10:13:04;4.85;;;1.13;;
83632;SDS011;73595;53.084;6.696;2024-01-15T10:15:29;7.25;;;1.20;;
83632;SDS011;73595;53.084;6.696;2024-01-15T10:17:59;12.57;;;1.48;;
83632;SDS011;73595;53.084;6.696;2024-01-15T10:20:25;18.60;;;2.55;;
83632;SDS011;73595;53.084;6.696;2024-01-15T10:22:50;13.15;;;1.45;;
83632;SDS011;73595;53.084;6.696;2024-01-15T10:25:15;10.68;;;1.70;;
83632;SDS011;73595;53.084;6.696;2024-01-15T10:27:41;12.60;;;1.48;;
83632;SDS011;73595;53.084;6.696;2024-01-15T10:30:07;8.48;;;1.33;;
83632;SDS011;73595;53.084;6.696;2024-01-15T10:32:36;12.35;;;1.48;;
83632;SDS011;73595;53.084;6.696;2024-01-15T10:35:02;12.27;;;1.70;;
83632;SDS011;73595;53.084;6.696;2024-01-15T10:37:31;10.00;;;1.55;;
83632;SDS011;73595;53.084;6.696;2024-01-15T10:39:58;8.20;;;1.80;;
83632;SDS011;73595;53.084;6.696;2024-01-15T10:42:23;8.30;;;1.25;;
83632;SDS011;73595;53.084;6.696;2024-01-15T10:44:49;11.80;;;1.50;;
83632;SDS011;73595;53.084;6.696;2024-01-15T10:47:14;11.70;;;1.77;;
83632;SDS011;73595;53.084;6.696;2024-01-15T10:49:40;17.77;;;2.15;;
83632;SDS011;73595;53.084;6.696;2024-01-15T10:52:08;9.73;;;1.48;;
83632;SDS011;73595;53.084;6.696;2024-01-15T10:54:34;10.75;;;1.67;;
83632;SDS011;73595;53.084;6.696;2024-01-15T10:57:02;8.15;;;1.40;;
83632;SDS011;73595;53.084;6.696;2024-01-15T10:59:28;16.20;;;1.70;;
83632;SDS011;73595;53.084;6.696;2024-01-15T11:01:54;17.25;;;1.92;;
83632;SDS011;73595;53.084;6.696;2024-01-15T11:04:20;10.18;;;1.70;;
83632;SDS011;73595;53.084;6.696;2024-01-15T11:06:47;15.90;;;2.22;;
83632;SDS011;73595;53.084;6.696;2024-01-15T11:09:15;11.73;;;1.40;;
83632;SDS011;73595;53.084;6.696;2024-01-15T11:11:46;8.35;;;1.45;;
83632;SDS011;73595;53.084;6.696;2024-01-15T11:17:15;4.63;;;0.90;;
83632;SDS011;73595;53.084;6.696;2024-01-15T11:25:17;3.83;;;0.68;;
83632;SDS011;73595;53.084;6.696;2024-01-15T11:27:45;4.40;;;0.90;;
83632;SDS011;73595;53.084;6.696;2024-01-15T11:30:18;8.35;;;0.73;;
83632;SDS011;73595;53.084;6.696;2024-01-15T11:32:45;4.80;;;0.75;;
83632;SDS011;73595;53.084;6.696;2024-01-15T11:35:12;5.25;;;0.70;;
83632;SDS011;73595;53.084;6.696;2024-01-15T11:40:18;2.17;;;0.63;;
83632;SDS011;73595;53.084;6.696;2024-01-15T11:42:44;1.05;;;0.52;;
83632;SDS011;73595;53.084;6.696;2024-01-15T11:45:10;3.60;;;0.80;;
83632;SDS011;73595;53.084;6.696;2024-01-15T11:48:03;1.40;;;0.50;;
83632;SDS011;73595;53.084;6.696;2024-01-15T11:50:24;4.68;;;1.23;;
83632;SDS011;73595;53.084;6.696;2024-01-15T11:53:03;4.38;;;0.70;;
83632;SDS011;73595;53.084;6.696;2024-01-15T11:55:42;6.72;;;0.50;;
83632;SDS011;73595;53.084;6.696;2024-01-15T11:58:11;4.03;;;0.70;;
83632;SDS011;73595;53.084;6.696;2024-01-15T12:00:43;5.80;;;0.90;;
83632;SDS011;73595;53.084;6.696;2024-01-15T12:03:10;6.05;;;0.82;;
83632;SDS011;73595;53.084;6.696;2024-01-15T12:05:39;8.73;;;0.77;;
83632;SDS011;73595;53.084;6.696;2024-01-15T12:08:06;5.28;;;0.88;;
83632;SDS011;73595;53.084;6.696;2024-01-15T12:11:43;8.68;;;2.05;;
83632;SDS011;73595;53.084;6.696;2024-01-15T12:14:17;3.37;;;0.60;;
83632;SDS011;73595;53.084;6.696;2024-01-15T12:16:43;2.22;;;0.50;;
83632;SDS011;73595;53.084;6.696;2024-01-15T12:19:09;5.30;;;1.70;;
83632;SDS011;73595;53.084;6.696;2024-01-15T12:21:34;3.38;;;0.55;;
83632;SDS011;73595;53.084;6.696;2024-01-15T12:24:00;2.67;;;0.60;;
83632;SDS011;73595;53.084;6.696;2024-01-15T12:26:25;2.80;;;0.65;;
83632;SDS011;73595;53.084;6.696;2024-01-15T12:28:51;3.13;;;1.10;;
83632;SDS011;73595;53.084;6.696;2024-01-15T12:31:16;2.95;;;0.63;;
83632;SDS011;73595;53.084;6.696;2024-01-15T12:33:41;5.45;;;0.80;;
83632;SDS011;73595;53.084;6.696;2024-01-15T12:36:07;2.95;;;0.75;;
83632;SDS011;73595;53.084;6.696;2024-01-15T12:38:32;6.10;;;0.90;;
83632;SDS011;73595;53.084;6.696;2024-01-15T12:41:01;4.22;;;0.90;;
83632;SDS011;73595;53.084;6.696;2024-01-15T12:43:26;5.88;;;1.10;;
83632;SDS011;73595;53.084;6.696;2024-01-15T12:45:51;6.45;;;0.80;;
83632;SDS011;73595;53.084;6.696;2024-01-15T12:48:17;5.85;;;1.05;;
83632;SDS011;73595;53.084;6.696;2024-01-15T12:50:42;5.97;;;1.20;;
83632;SDS011;73595;53.084;6.696;2024-01-15T12:53:09;4.82;;;0.95;;
83632;SDS011;73595;53.084;6.696;2024-01-15T12:55:34;5.35;;;0.90;;
83632;SDS011;73595;53.084;6.696;2024-01-15T12:57:59;9.93;;;0.93;;
83632;SDS011;73595;53.084;6.696;2024-01-15T13:00:25;5.30;;;0.95;;
83632;SDS011;73595;53.084;6.696;2024-01-15T13:02:51;9.82;;;1.00;;
83632;SDS011;73595;53.084;6.696;2024-01-15T13:05:16;10.13;;;1.27;;
83632;SDS011;73595;53.084;6.696;2024-01-15T13:07:42;7.57;;;1.02;;
83632;SDS011;73595;53.084;6.696;2024-01-15T13:10:08;3.75;;;0.93;;
83632;SDS011;73595;53.084;6.696;2024-01-15T13:12:34;8.77;;;1.20;;
83632;SDS011;73595;53.084;6.696;2024-01-15T13:15:00;8.35;;;1.48;;
83632;SDS011;73595;53.084;6.696;2024-01-15T13:17:28;10.30;;;1.17;;
83632;SDS011;73595;53.084;6.696;2024-01-15T13:19:53;12.77;;;1.55;;
83632;SDS011;73595;53.084;6.696;2024-01-15T13:22:19;10.05;;;1.00;;
83632;SDS011;73595;53.084;6.696;2024-01-15T13:24:45;14.10;;;1.77;;
83632;SDS011;73595;53.084;6.696;2024-01-15T13:27:10;13.90;;;1.73;;
83632;SDS011;73595;53.084;6.696;2024-01-15T13:29:37;13.55;;;2.33;;
83632;SDS011;73595;53.084;6.696;2024-01-15T13:32:02;12.75;;;2.13;;
83632;SDS011;73595;53.084;6.696;2024-01-15T13:34:31;10.13;;;1.55;;
83632;SDS011;73595;53.084;6.696;2024-01-15T13:36:56;10.60;;;1.85;;
83632;SDS011;73595;53.084;6.696;2024-01-15T13:39:22;12.30;;;1.50;;
83632;SDS011;73595;53.084;6.696;2024-01-15T13:41:48;12.77;;;1.35;;
83632;SDS011;73595;53.084;6.696;2024-01-15T13:44:14;6.82;;;1.13;;
83632;SDS011;73595;53.084;6.696;2024-01-15T13:46:39;8.15;;;1.70;;
83632;SDS011;73595;53.084;6.696;2024-01-15T13:49:05;10.00;;;1.42;;
83632;SDS011;73595;53.084;6.696;2024-01-15T13:51:39;7.00;;;1.20;;
83632;SDS011;73595;53.084;6.696;2024-01-15T13:54:05;8.38;;;1.50;;
83632;SDS011;73595;53.084;6.696;2024-01-15T13:56:30;7.22;;;1.15;;
83632;SDS011;73595;53.084;6.696;2024-01-15T13:58:57;4.13;;;1.10;;
83632;SDS011;73595;53.084;6.696;2024-01-15T14:01:24;9.30;;;1.20;;
83632;SDS011;73595;53.084;6.696;2024-01-15T14:03:50;8.68;;;2.08;;
83632;SDS011;73595;53.084;6.696;2024-01-15T14:06:15;9.40;;;1.58;;
83632;SDS011;73595;53.084;6.696;2024-01-15T14:08:41;5.85;;;1.25;;
83632;SDS011;73595;53.084;6.696;2024-01-15T14:11:06;12.43;;;2.33;;
83632;SDS011;73595;53.084;6.696;2024-01-15T14:13:32;12.60;;;1.95;;
83632;SDS011;73595;53.084;6.696;2024-01-15T14:15:59;8.85;;;1.50;;
83632;SDS011;73595;53.084;6.696;2024-01-15T14:18:25;9.50;;;1.77;;
83632;SDS011;73595;53.084;6.696;2024-01-15T14:20:51;12.02;;;1.40;;
83632;SDS011;73595;53.084;6.696;2024-01-15T14:23:18;13.18;;;1.60;;
83632;SDS011;73595;53.084;6.696;2024-01-15T14:25:44;11.32;;;1.73;;
83632;SDS011;73595;53.084;6.696;2024-01-15T14:28:09;12.30;;;1.73;;
83632;SDS011;73595;53.084;6.696;2024-01-15T14:30:35;9.50;;;1.60;;
83632;SDS011;73595;53.084;6.696;2024-01-15T14:33:01;11.57;;;1.60;;
83632;SDS011;73595;53.084;6.696;2024-01-15T14:35:26;8.70;;;1.33;;
83632;SDS011;73595;53.084;6.696;2024-01-15T14:37:52;11.07;;;1.70;;
83632;SDS011;73595;53.084;6.696;2024-01-15T14:40:17;10.15;;;2.22;;
83632;SDS011;73595;53.084;6.696;2024-01-15T14:42:43;8.88;;;1.33;;
83632;SDS011;73595;53.084;6.696;2024-01-15T14:45:09;12.32;;;2.03;;